Time;durP1;ratioP1;P1;durP2;ratioP2;P2;SDS_P1;SDS_P2;PMS_P1;PMS_P2;Temp;Humidity;BMP_temperature;BMP_pressure;BME280_temperature;BME280_humidity;BME280_pressure;Samples;Min_cycle;Max_cycle;Signal;HPM_P1;HPM_P2
2022/08/18 00:02:18;;;;;;;13.75;8.63;;;19.30;99.90;;;;;;6102484;23;20006;-90
2022/08/18 00:04:45;;;;;;;10.07;8.60;;;19.20;99.90;;;;;;6102757;23;20013;-91
2022/08/18 00:07:16;;;;;;;13.90;8.50;;;19.20;99.90;;;;;;6102820;23;20006;-91
2022/08/18 00:09:42;;;;;;;13.80;8.77;;;19.10;99.90;;;;;;6102816;23;20013;-90
2022/08/18 00:12:24;;;;;;;13.73;9.02;;;19.20;99.90;;;;;;6127625;23;20009;-90
2022/08/18 00:14:50;;;;;;;13.60;8.75;;;19.10;99.90;;;;;;6127809;23;20056;-91
2022/08/18 00:17:18;;;;;;;14.57;8.80;;;19.10;99.90;;;;;;6127579;23;20080;-91
2022/08/18 00:19:44;;;;;;;11.55;9.20;;;19.10;99.90;;;;;;6103344;23;20016;-91
2022/08/18 00:22:12;;;;;;;11.70;9.07;;;19.00;99.90;;;;;;6126932;23;20423;-92
2022/08/18 00:25:13;;;;;;;12.75;9.27;;;19.00;99.90;;;;;;6127078;23;20093;-89
2022/08/18 00:27:40;;;;;;;13.90;9.02;;;18.90;99.90;;;;;;6102661;23;20017;-91
2022/08/18 00:30:09;;;;;;;14.63;9.07;;;18.90;99.90;;;;;;6128619;23;20002;-90
2022/08/18 00:32:41;;;;;;;13.43;9.13;;;18.80;99.90;;;;;;6101997;23;20009;-90
2022/08/18 00:35:14;;;;;;;;;;;18.80;99.90;;;;;;6128098;23;20002;-91
2022/08/18 00:37:41;;;;;;;12.38;8.20;;;18.80;99.90;;;;;;6103040;23;19905;-90
2022/08/18 00:40:30;;;;;;;12.50;8.73;;;18.80;99.90;;;;;;6103294;23;20030;-92
2022/08/18 00:43:00;;;;;;;9.70;7.78;;;18.80;99.90;;;;;;6103080;23;20014;-91
2022/08/18 00:45:35;;;;;;;8.88;7.18;;;18.80;99.90;;;;;;6127414;23;20006;-91
2022/08/18 00:48:02;;;;;;;10.15;7.50;;;18.80;99.90;;;;;;6107185;23;20009;-91
2022/08/18 00:50:37;;;;;;;13.00;7.45;;;18.80;99.90;;;;;;6132221;23;20082;-91
2022/08/18 00:53:18;;;;;;;10.93;7.60;;;18.80;99.90;;;;;;6156386;23;20056;-90
2022/08/18 00:55:47;;;;;;;14.07;7.70;;;18.80;99.90;;;;;;6131907;23;20045;-91
2022/08/18 00:58:20;;;;;;;10.48;8.05;;;18.70;99.90;;;;;;6156505;23;20009;-91
2022/08/18 01:00:49;;;;;;;10.10;6.93;;;18.70;99.90;;;;;;6157921;23;20005;-84
2022/08/18 01:03:17;;;;;;;12.50;7.47;;;18.60;99.90;;;;;;6154614;23;20045;-85
2022/08/18 01:06:07;;;;;;;10.80;7.70;;;18.60;99.90;;;;;;6130266;23;20132;-84
2022/08/18 01:08:33;;;;;;;9.48;7.55;;;18.60;99.90;;;;;;6129723;23;20673;-85
2022/08/18 01:11:01;;;;;;;9.48;7.22;;;18.60;99.90;;;;;;6129674;23;20005;-85
2022/08/18 01:13:32;;;;;;;9.32;7.57;;;18.60;99.90;;;;;;6129692;23;20801;-85
2022/08/18 01:21:49;;;;;;;12.65;7.60;;;18.60;99.90;;;;;;6129799;23;20048;-84
2022/08/18 01:24:15;;;;;;;8.82;7.13;;;18.50;99.90;;;;;;6153862;23;20016;-85
2022/08/18 01:26:45;;;;;;;12.82;7.88;;;18.40;99.90;;;;;;6130143;23;20032;-85
2022/08/18 01:29:11;;;;;;;14.10;7.85;;;18.40;99.90;;;;;;6154696;23;20045;-84
2022/08/18 01:31:40;;;;;;;10.93;7.97;;;18.40;99.90;;;;;;6129894;23;20009;-84
2022/08/18 01:34:09;;;;;;;9.98;7.70;;;18.40;99.90;;;;;;6129662;23;20013;-84
2022/08/18 01:36:39;;;;;;;9.82;7.07;;;18.40;99.90;;;;;;6129779;23;20434;-84
2022/08/18 01:39:11;;;;;;;14.13;7.50;;;18.40;99.90;;;;;;6129835;23;20009;-85
2022/08/18 01:41:38;;;;;;;11.73;7.38;;;18.30;99.90;;;;;;6154195;23;20002;-85
2022/08/18 01:44:04;;;;;;;9.32;7.50;;;18.30;99.90;;;;;;6153299;23;20009;-85
2022/08/18 01:46:33;;;;;;;11.70;7.50;;;18.30;99.90;;;;;;6154099;23;20056;-85
2022/08/18 01:49:00;;;;;;;15.63;7.57;;;18.30;99.90;;;;;;6154309;23;20117;-85
2022/08/18 01:51:28;;;;;;;16.58;8.30;;;18.20;99.90;;;;;;6154609;23;20098;-85
2022/08/18 01:53:54;;;;;;;12.32;7.95;;;18.20;99.90;;;;;;6129540;23;20057;-85
2022/08/18 01:56:20;;;;;;;13.05;7.28;;;18.20;99.90;;;;;;6154605;23;20005;-84
2022/08/18 01:58:48;;;;;;;10.07;7.13;;;18.20;99.90;;;;;;6129560;23;20445;-85
2022/08/18 02:02:08;;;;;;;15.57;7.45;;;18.20;99.90;;;;;;6129453;23;20017;-85
2022/08/18 02:04:35;;;;;;;9.23;7.18;;;18.10;99.90;;;;;;6153610;23;20423;-84
2022/08/18 02:07:02;;;;;;;9.25;7.63;;;18.00;99.90;;;;;;6154449;23;20029;-85
2022/08/18 02:09:28;;;;;;;9.25;7.15;;;18.10;99.90;;;;;;6154762;23;20362;-85
2022/08/18 02:11:55;;;;;;;10.95;7.55;;;18.10;99.90;;;;;;6154590;23;20085;-85
2022/08/18 02:14:21;;;;;;;12.60;8.05;;;18.00;99.90;;;;;;6129457;23;20017;-85
2022/08/18 02:16:46;;;;;;;11.50;7.05;;;18.00;99.90;;;;;;6129492;23;20020;-84
2022/08/18 02:19:13;;;;;;;9.40;6.88;;;18.00;99.90;;;;;;6129840;23;20005;-84
2022/08/18 02:21:45;;;;;;;9.68;7.10;;;18.00;99.90;;;;;;6154145;23;20010;-85
2022/08/18 02:24:10;;;;;;;13.38;7.05;;;18.00;99.90;;;;;;6129237;23;20058;-84
2022/08/18 02:26:36;;;;;;;9.05;6.03;;;18.00;99.90;;;;;;6129898;23;20085;-85
2022/08/18 02:29:02;;;;;;;10.98;8.07;;;17.90;99.90;;;;;;6129640;23;20016;-84
2022/08/18 02:31:28;;;;;;;8.57;6.65;;;17.90;99.90;;;;;;6154006;23;20419;-85
2022/08/18 02:33:56;;;;;;;9.90;7.10;;;17.90;99.90;;;;;;6157314;23;20041;-84
2022/08/18 02:36:22;;;;;;;8.70;6.78;;;18.00;99.90;;;;;;6131437;23;20013;-85
2022/08/18 02:38:47;;;;;;;8.88;7.40;;;17.90;99.90;;;;;;6156054;23;20009;-85
2022/08/18 02:41:13;;;;;;;8.50;6.75;;;18.00;99.90;;;;;;6132259;23;20044;-85
2022/08/18 02:43:41;;;;;;;8.73;7.07;;;17.90;99.90;;;;;;6131803;23;20009;-84
2022/08/18 02:46:06;;;;;;;9.30;7.50;;;17.90;99.90;;;;;;6131634;23;20341;-85
2022/08/18 02:48:36;;;;;;;10.15;7.68;;;17.80;99.90;;;;;;6155247;23;20009;-84
2022/08/18 02:51:05;;;;;;;12.18;7.30;;;17.80;99.90;;;;;;6156090;23;20001;-85
2022/08/18 02:53:32;;;;;;;9.25;7.03;;;17.70;99.90;;;;;;6130610;23;20006;-84
2022/08/18 02:56:28;;;;;;;8.80;7.20;;;17.60;99.90;;;;;;6155803;23;20052;-85
2022/08/18 02:59:00;;;;;;;10.63;7.65;;;17.60;99.90;;;;;;6131203;23;20345;-85
2022/08/18 03:01:37;;;;;;;9.85;7.40;;;17.40;99.90;;;;;;6130905;23;20426;-85
2022/08/18 03:04:05;;;;;;;15.82;8.50;;;17.30;99.90;;;;;;6130518;23;20096;-84
2022/08/18 03:06:32;;;;;;;11.23;8.05;;;17.20;99.90;;;;;;6130727;23;20014;-84
2022/08/18 03:08:57;;;;;;;9.73;7.80;;;17.10;99.90;;;;;;6130792;23;20017;-85
2022/08/18 03:11:27;;;;;;;10.55;7.47;;;17.00;99.90;;;;;;6155608;23;20009;-85
2022/08/18 03:14:17;;;;;;;14.50;8.27;;;17.00;99.90;;;;;;6130604;23;20343;-84
2022/08/18 03:16:45;;;;;;;11.48;8.20;;;16.80;99.90;;;;;;6155179;23;20002;-85
2022/08/18 03:19:13;;;;;;;16.38;8.63;;;16.70;99.90;;;;;;6155558;23;20005;-86
2022/08/18 03:21:39;;;;;;;13.65;8.75;;;16.60;99.90;;;;;;6154906;23;20005;-85
2022/08/18 03:24:05;;;;;;;12.38;8.80;;;16.50;99.90;;;;;;6156370;23;20373;-85
2022/08/18 03:26:32;;;;;;;10.52;8.35;;;16.40;99.90;;;;;;6156261;23;20017;-85
2022/08/18 03:28:59;;;;;;;13.43;8.50;;;16.30;99.90;;;;;;6156198;23;20378;-85
2022/08/18 03:31:27;;;;;;;14.63;8.38;;;16.20;99.90;;;;;;6156331;23;20007;-85
2022/08/18 03:33:54;;;;;;;15.75;8.10;;;16.10;99.90;;;;;;6131257;23;20016;-86
2022/08/18 03:36:24;;;;;;;11.15;8.68;;;16.00;99.90;;;;;;6131563;23;20009;-85
2022/08/18 03:38:52;;;;;;;12.05;8.82;;;16.00;99.90;;;;;;6155614;23;20014;-86
2022/08/18 03:41:24;;;;;;;13.35;9.38;;;16.00;99.90;;;;;;6157223;23;20001;-85
2022/08/18 03:43:50;;;;;;;13.55;9.15;;;15.90;99.90;;;;;;6130137;23;20033;-85
2022/08/18 03:46:18;;;;;;;9.90;8.43;;;15.90;99.90;;;;;;6155533;23;20002;-85
2022/08/18 03:48:46;;;;;;;10.90;8.63;;;15.90;99.90;;;;;;6130817;23;20848;-84
2022/08/18 03:51:14;;;;;;;13.63;8.57;;;16.00;99.90;;;;;;6131047;23;20010;-85
2022/08/18 03:53:40;;;;;;;8.80;7.53;;;16.10;99.90;;;;;;6155341;23;20006;-84
2022/08/18 03:56:14;;;;;;;13.27;7.97;;;16.10;99.90;;;;;;6155645;23;20009;-84
2022/08/18 03:58:46;;;;;;;8.45;7.38;;;16.20;99.90;;;;;;6155363;23;20063;-84
2022/08/18 04:01:14;;;;;;;12.40;7.15;;;16.30;99.90;;;;;;6154947;23;20028;-84
2022/08/18 04:04:02;;;;;;;11.20;7.85;;;16.40;99.90;;;;;;6130244;23;20005;-84
2022/08/18 04:06:40;;;;;;;10.90;7.57;;;16.50;99.90;;;;;;6130444;23;20362;-85
2022/08/18 04:09:10;;;;;;;10.95;7.53;;;16.50;99.90;;;;;;6130855;23;20013;-84
2022/08/18 04:11:37;;;;;;;8.73;7.05;;;16.60;99.90;;;;;;6130850;23;20006;-85
2022/08/18 04:14:05;;;;;;;8.98;7.45;;;16.60;99.90;;;;;;6130406;23;20423;-84
2022/08/18 04:16:33;;;;;;;10.70;7.30;;;16.70;99.90;;;;;;6130817;23;20097;-84
2022/08/18 04:19:02;;;;;;;9.65;7.38;;;16.70;99.90;;;;;;6130450;23;20053;-84
2022/08/18 04:21:30;;;;;;;9.23;7.10;;;16.70;99.90;;;;;;6154313;23;20013;-84
2022/08/18 04:24:00;;;;;;;12.20;6.78;;;16.80;99.90;;;;;;6155849;23;20014;-84
2022/08/18 04:26:26;;;;;;;12.38;7.35;;;16.80;99.90;;;;;;6130233;23;20334;-84
2022/08/18 04:28:51;;;;;;;10.93;7.18;;;16.90;99.90;;;;;;6130269;23;20016;-84
2022/08/18 04:31:50;;;;;;;10.77;7.40;;;16.90;99.90;;;;;;6129979;23;20388;-84
2022/08/18 04:34:19;;;;;;;10.57;7.68;;;16.90;99.90;;;;;;6153567;23;20041;-85
2022/08/18 04:36:45;;;;;;;11.60;7.75;;;16.90;99.90;;;;;;6129891;23;20121;-84
2022/08/18 04:39:12;;;;;;;9.48;7.15;;;16.90;99.90;;;;;;6154739;23;20456;-84
2022/08/18 04:41:42;;;;;;;9.13;6.72;;;16.90;99.90;;;;;;6130266;23;20092;-84
2022/08/18 04:44:29;;;;;;;14.27;7.70;;;16.90;99.90;;;;;;6155281;23;20635;-84
2022/08/18 04:46:55;;;;;;;10.43;7.22;;;16.90;99.90;;;;;;6129490;23;20025;-84
2022/08/18 04:49:24;;;;;;;9.30;7.25;;;16.90;99.90;;;;;;6154181;23;20013;-84
2022/08/18 04:54:37;;;;;;;10.13;7.07;;;17.00;99.90;;;;;;6154674;23;20009;-84
2022/08/18 04:57:25;;;;;;;8.48;7.47;;;17.00;99.90;;;;;;6129687;23;20325;-84
2022/08/18 04:59:51;;;;;;;8.77;6.70;;;16.90;99.90;;;;;;6129534;23;20016;-84
2022/08/18 05:02:18;;;;;;;9.73;7.38;;;16.90;99.90;;;;;;6153893;23;20033;-84
2022/08/18 05:04:46;;;;;;;11.88;7.78;;;16.90;99.90;;;;;;6155235;23;20021;-84
2022/08/18 05:07:14;;;;;;;10.65;7.28;;;16.90;99.90;;;;;;6129539;23;20010;-85
2022/08/18 05:09:43;;;;;;;10.68;7.78;;;16.90;99.90;;;;;;6128920;23;20002;-84
2022/08/18 05:12:12;;;;;;;9.80;7.30;;;16.90;99.90;;;;;;6154132;23;20009;-84
2022/08/18 05:14:45;;;;;;;10.98;7.55;;;16.90;99.90;;;;;;6129144;23;20016;-84
2022/08/18 05:17:13;;;;;;;12.98;8.23;;;16.90;99.90;;;;;;6129445;23;20490;-84
2022/08/18 05:19:40;;;;;;;9.93;7.43;;;16.90;99.90;;;;;;6129222;23;20076;-84
2022/08/18 05:22:06;;;;;;;8.90;7.25;;;16.90;99.90;;;;;;6129719;23;20031;-84
2022/08/18 05:24:34;;;;;;;9.18;7.57;;;16.80;99.90;;;;;;6129144;23;20064;-84
2022/08/18 05:27:00;;;;;;;11.30;7.85;;;16.80;99.90;;;;;;6154402;23;20006;-84
2022/08/18 05:29:26;;;;;;;10.27;8.45;;;16.70;99.90;;;;;;6154277;23;20005;-84
2022/08/18 05:31:52;;;;;;;8.55;7.13;;;16.70;99.90;;;;;;6154155;23;20008;-84
2022/08/18 05:34:20;;;;;;;9.10;7.10;;;16.80;99.90;;;;;;6128965;23;20009;-84
2022/08/18 05:36:51;;;;;;;11.73;7.90;;;16.80;99.90;;;;;;6129347;23;20021;-84
2022/08/18 05:39:22;;;;;;;9.45;7.70;;;16.80;99.90;;;;;;6129102;23;20014;-84
2022/08/18 05:41:57;;;;;;;9.82;7.95;;;16.80;99.90;;;;;;6153572;23;20013;-85
2022/08/18 05:44:58;;;;;;;11.38;7.93;;;16.90;99.90;;;;;;6153068;23;20011;-85
2022/08/18 05:47:27;;;;;;;11.05;8.35;;;16.90;99.90;;;;;;6129453;23;20005;-85
2022/08/18 05:50:12;;;;;;;11.75;8.30;;;17.00;99.90;;;;;;6154142;23;20016;-85
2022/08/18 05:52:44;;;;;;;12.60;8.40;;;16.90;99.90;;;;;;6129908;23;20456;-84
2022/08/18 05:58:32;;;;;;;11.15;8.50;;;16.90;99.90;;;;;;6155797;23;20374;-84
2022/08/18 06:01:03;;;;;;;10.70;9.13;;;16.90;99.90;;;;;;6129873;23;20391;-84
2022/08/18 06:04:16;;;;;;;13.45;8.77;;;16.90;99.90;;;;;;6155384;23;20450;-84
2022/08/18 06:06:43;;;;;;;12.40;9.75;;;16.90;99.90;;;;;;6129134;23;20067;-84
2022/08/18 06:09:33;;;;;;;15.75;10.40;;;16.90;99.90;;;;;;6156007;23;20012;-84
2022/08/18 06:12:34;;;;;;;12.70;9.48;;;17.00;99.90;;;;;;6131478;23;20017;-84
2022/08/18 06:15:23;;;;;;;13.50;8.80;;;17.00;99.90;;;;;;6115496;23;20016;-84
2022/08/18 06:21:57;;;;;;;11.30;7.68;;;17.30;99.90;;;;;;6157358;23;20465;-84
2022/08/18 06:24:42;;;;;;;13.15;8.18;;;17.40;99.90;;;;;;6138268;23;20013;-84
2022/08/18 06:27:45;;;;;;;13.80;8.80;;;17.60;99.90;;;;;;6130789;23;20009;-84
2022/08/18 06:30:20;;;;;;;10.00;7.53;;;17.60;99.90;;;;;;6131335;23;20029;-84
2022/08/18 06:32:55;;;;;;;11.07;7.93;;;17.80;99.90;;;;;;6130649;23;20005;-84
2022/08/18 06:35:49;;;;;;;11.20;8.70;;;17.80;99.90;;;;;;6156132;23;20001;-84
2022/08/18 06:38:47;;;;;;;13.15;9.07;;;18.00;99.90;;;;;;6131192;23;20069;-85
2022/08/18 06:41:18;;;;;;;11.73;8.68;;;18.00;99.90;;;;;;6131240;23;20009;-82
2022/08/18 06:43:58;;;;;;;11.98;9.00;;;18.00;99.90;;;;;;6155426;23;20101;-84
2022/08/18 06:46:40;;;;;;;11.95;9.35;;;18.00;99.90;;;;;;6155494;23;20017;-84
2022/08/18 06:49:15;;;;;;;19.27;10.25;;;18.00;99.90;;;;;;6130623;23;20089;-84
2022/08/18 06:51:41;;;;;;;17.90;11.60;;;18.10;99.90;;;;;;6154551;23;20104;-84
2022/08/18 06:54:26;;;;;;;17.60;11.93;;;18.10;99.90;;;;;;6130810;23;20407;-84
2022/08/18 06:56:55;;;;;;;18.48;11.82;;;18.20;99.90;;;;;;6130650;23;20048;-84
2022/08/18 06:59:28;;;;;;;18.40;14.07;;;18.20;99.90;;;;;;6131006;23;20017;-84
2022/08/18 07:02:24;;;;;;;18.35;14.63;;;18.30;99.90;;;;;;6155461;23;20025;-84
2022/08/18 07:05:07;;;;;;;19.15;15.70;;;18.30;99.90;;;;;;6130195;23;20434;-84
2022/08/18 07:07:37;;;;;;;20.55;16.05;;;18.20;99.90;;;;;;6155481;23;20334;-84
2022/08/18 07:10:36;;;;;;;17.55;13.55;;;18.20;99.90;;;;;;6154943;23;20060;-84
2022/08/18 07:13:19;;;;;;;17.75;13.25;;;18.20;99.90;;;;;;6130544;23;20006;-84
2022/08/18 07:16:13;;;;;;;22.00;16.42;;;18.20;99.90;;;;;;6130679;23;20071;-84
2022/08/18 07:18:39;;;;;;;23.35;17.08;;;18.20;99.90;;;;;;6130365;23;20036;-85
2022/08/18 07:21:04;;;;;;;26.38;17.88;;;18.20;99.90;;;;;;6129512;23;20014;-84
2022/08/18 07:23:39;;;;;;;20.48;16.38;;;18.10;99.90;;;;;;6129454;23;20630;-85
2022/08/18 07:26:16;;;;;;;22.33;17.17;;;18.10;99.90;;;;;;6130850;23;20009;-84
2022/08/18 07:28:48;;;;;;;17.60;14.45;;;18.10;99.90;;;;;;6154586;23;20073;-84
2022/08/18 07:31:38;;;;;;;18.10;14.20;;;18.20;99.90;;;;;;6130449;23;20052;-85
2022/08/18 07:34:41;;;;;;;18.35;14.57;;;18.30;99.90;;;;;;6154542;23;20009;-85
2022/08/18 07:37:26;;;;;;;21.65;15.77;;;18.40;99.90;;;;;;6130493;23;20009;-84
2022/08/18 07:39:52;;;;;;;26.17;15.95;;;18.50;99.90;;;;;;6155188;23;20735;-84
2022/08/18 07:42:37;;;;;;;19.73;14.02;;;18.50;99.90;;;;;;6130184;23;20009;-84
2022/08/18 07:45:18;;;;;;;17.42;13.10;;;18.50;99.90;;;;;;6154046;23;20013;-85
2022/08/18 07:48:00;;;;;;;16.35;12.85;;;18.40;99.90;;;;;;6130258;23;20037;-85
2022/08/18 07:50:26;;;;;;;14.13;11.40;;;18.30;99.90;;;;;;6155403;23;20010;-85
2022/08/18 07:53:33;;;;;;;15.70;11.73;;;18.20;99.90;;;;;;6130610;23;20006;-85
2022/08/18 07:56:10;;;;;;;16.38;11.80;;;18.00;99.90;;;;;;6130566;23;20049;-84
2022/08/18 07:59:00;;;;;;;25.05;18.77;;;17.90;99.90;;;;;;6154979;23;20659;-84
2022/08/18 08:01:48;;;;;;;32.28;23.55;;;17.90;99.90;;;;;;6129034;23;20788;-85
2022/08/18 08:04:33;;;;;;;31.00;22.27;;;18.00;99.90;;;;;;6130518;23;20013;-84
2022/08/18 08:07:15;;;;;;;26.67;22.55;;;18.00;99.90;;;;;;6155249;23;20009;-84
2022/08/18 08:09:58;;;;;;;29.00;22.80;;;18.00;99.90;;;;;;6130837;23;20012;-84
2022/08/18 08:12:42;;;;;;;29.60;22.13;;;18.00;99.90;;;;;;6130379;23;20426;-83
2022/08/18 08:15:44;;;;;;;30.42;20.98;;;18.00;99.90;;;;;;6130468;23;20785;-84
2022/08/18 08:18:16;;;;;;;;;;;17.90;99.90;;;;;;6155484;23;20017;-84
2022/08/18 08:20:47;;;;;;;27.88;21.65;;;18.10;99.90;;;;;;6154811;23;20345;-84
2022/08/18 08:23:44;;;;;;;27.23;21.33;;;18.10;99.90;;;;;;6129743;23;20013;-83
2022/08/18 08:26:28;;;;;;;27.25;19.80;;;18.20;99.90;;;;;;6127908;23;20057;-83
2022/08/18 08:29:05;;;;;;;30.48;23.42;;;18.30;99.90;;;;;;6130324;23;20014;-83
2022/08/18 08:31:56;;;;;;;32.78;24.48;;;18.30;99.90;;;;;;6154221;23;20045;-83
2022/08/18 08:34:24;;;;;;;30.30;24.50;;;18.50;99.90;;;;;;6155187;23;20009;-84
2022/08/18 08:36:58;;;;;;;33.03;25.45;;;18.50;99.90;;;;;;6154800;23;20401;-83
2022/08/18 08:42:38;;;;;;;32.78;26.67;;;18.60;99.90;;;;;;6156063;23;20005;-84
2022/08/18 08:45:08;;;;;;;;;;;18.50;99.90;;;;;;6129987;23;20013;-84
2022/08/18 08:47:53;;;;;;;37.00;26.70;;;18.50;99.90;;;;;;6153998;23;19908;-83
2022/08/18 08:50:24;;;;;;;38.63;28.80;;;18.50;99.90;;;;;;6129016;23;20308;-83
2022/08/18 08:52:52;;;;;;;39.50;28.08;;;18.60;99.90;;;;;;6130074;23;20037;-83
2022/08/18 08:55:29;;;;;;;41.90;30.73;;;18.60;99.90;;;;;;6154023;23;20017;-83
2022/08/18 08:58:33;;;;;;;46.30;32.28;;;18.60;99.90;;;;;;6129610;23;20116;-84
2022/08/18 09:00:59;;;;;;;42.88;31.60;;;18.60;99.90;;;;;;6129368;23;20039;-84
2022/08/18 09:03:30;;;;;;;46.97;31.42;;;18.60;99.90;;;;;;6129237;23;20456;-84
2022/08/18 09:05:59;;;;;;;49.22;33.28;;;18.60;99.90;;;;;;6128852;23;20021;-84
2022/08/18 09:08:34;;;;;;;43.08;32.60;;;18.60;99.90;;;;;;6129340;23;20041;-84
2022/08/18 09:11:00;;;;;;;43.13;31.00;;;18.60;99.90;;;;;;6128888;23;20105;-83
2022/08/18 09:13:53;;;;;;;47.65;34.47;;;18.50;99.90;;;;;;6153669;23;20014;-84
2022/08/18 09:16:33;;;;;;;46.03;32.22;;;18.50;99.90;;;;;;6128671;23;20033;-84
2022/08/18 09:19:28;;;;;;;33.47;24.77;;;18.50;99.90;;;;;;6153664;23;20009;-84
2022/08/18 09:22:31;;;;;;;24.92;17.17;;;18.40;99.90;;;;;;6128859;23;20163;-84
2022/08/18 09:24:58;;;;;;;20.38;16.63;;;18.40;99.90;;;;;;6128822;23;20100;-84
2022/08/18 09:27:45;;;;;;;21.77;16.60;;;18.20;99.90;;;;;;6153853;23;20068;-84
2022/08/18 09:30:36;;;;;;;21.13;14.73;;;18.10;99.90;;;;;;6129001;23;20009;-84
2022/08/18 09:33:23;;;;;;;20.85;14.65;;;18.00;99.90;;;;;;6153247;23;20009;-84
2022/08/18 09:36:08;;;;;;;35.33;19.27;;;17.80;99.90;;;;;;6154608;23;20005;-87
2022/08/18 09:41:44;;;;;;;30.88;18.92;;;17.50;99.90;;;;;;6153927;23;20016;-86
2022/08/18 09:44:34;;;;;;;34.78;20.48;;;17.30;99.90;;;;;;6129944;23;20092;-87
2022/08/18 09:47:00;;;;;;;36.13;22.38;;;17.10;99.90;;;;;;6153673;23;20016;-86
2022/08/18 09:49:26;;;;;;;37.28;23.15;;;17.00;99.90;;;;;;6128899;23;20041;-85
2022/08/18 09:51:54;;;;;;;33.75;22.58;;;16.90;99.90;;;;;;6155550;23;20057;-86
2022/08/18 09:54:23;;;;;;;44.85;24.88;;;16.90;99.90;;;;;;6129066;23;20097;-85
2022/08/18 09:56:48;;;;;;;37.13;25.45;;;17.00;99.90;;;;;;6129142;23;19998;-87
2022/08/18 09:59:33;;;;;;;41.30;28.60;;;17.10;99.90;;;;;;6129572;23;20334;-86
2022/08/18 10:02:00;;;;;;;47.80;31.77;;;17.20;99.90;;;;;;6129616;23;20036;-86
2022/08/18 10:08:13;;;;;;;44.88;32.92;;;17.40;99.90;;;;;;6156110;23;20407;-87
2022/08/18 10:10:48;;;;;;;55.25;37.70;;;17.50;99.90;;;;;;6129255;23;20009;-87
2022/08/18 10:13:48;;;;;;;70.93;47.15;;;17.50;99.90;;;;;;6152852;23;20017;-87
2022/08/18 10:16:28;;;;;;;68.28;47.70;;;17.60;99.90;;;;;;6153870;23;20222;-86
2022/08/18 10:19:32;;;;;;;83.13;54.13;;;17.80;99.90;;;;;;6129937;23;20089;-86
2022/08/18 10:21:58;;;;;;;83.68;52.13;;;18.10;99.90;;;;;;6129050;23;20006;-87
2022/08/18 10:24:54;;;;;;;65.03;45.88;;;18.40;99.90;;;;;;6153436;23;20061;-85
2022/08/18 10:27:45;;;;;;;54.08;39.67;;;18.80;99.90;;;;;;6129183;23;20014;-84
2022/08/18 10:30:29;;;;;;;53.00;39.07;;;18.80;99.90;;;;;;6129564;23;20448;-85
2022/08/18 10:32:56;;;;;;;45.78;35.13;;;19.10;99.90;;;;;;6128930;23;20012;-87
2022/08/18 10:35:34;;;;;;;51.67;37.83;;;19.50;99.90;;;;;;6153232;23;20061;-86
2022/08/18 10:38:16;;;;;;;47.67;34.67;;;19.70;99.90;;;;;;6128866;23;20018;-86
2022/08/18 10:40:42;;;;;;;42.05;31.88;;;20.50;99.90;;;;;;6128800;23;20436;-85
2022/08/18 10:43:29;;;;;;;36.67;29.65;;;21.60;99.90;;;;;;6153720;23;20008;-86
2022/08/18 10:45:56;;;;;;;34.33;28.25;;;22.30;99.90;;;;;;6128846;23;20009;-85
2022/08/18 10:48:24;;;;;;;36.28;28.23;;;22.00;99.90;;;;;;6128818;23;20032;-85
2022/08/18 10:51:02;;;;;;;31.08;25.38;;;21.90;99.90;;;;;;6129728;23;20434;-84
2022/08/18 10:53:36;;;;;;;31.67;23.98;;;21.80;99.90;;;;;;6128970;23;20005;-84
2022/08/18 10:56:20;;;;;;;32.40;28.15;;;21.90;99.90;;;;;;6131074;23;20020;-83
2022/08/18 10:58:59;;;;;;;33.67;26.83;;;22.20;99.90;;;;;;6130604;23;20014;-84
2022/08/18 11:01:52;;;;;;;30.00;24.35;;;22.20;99.90;;;;;;6155011;23;20020;-84
2022/08/18 11:04:24;;;;;;;23.83;20.55;;;22.40;99.90;;;;;;6130670;23;20009;-84
2022/08/18 11:06:55;;;;;;;24.60;21.83;;;22.60;99.90;;;;;;6155185;23;20381;-83
2022/08/18 11:09:26;;;;;;;28.77;21.63;;;22.30;99.90;;;;;;6131073;23;20025;-84
2022/08/18 11:11:53;;;;;;;;;;;22.20;99.90;;;;;;6155653;23;20088;-84
2022/08/18 11:14:51;;;;;;;28.35;22.73;;;22.00;99.90;;;;;;6155201;23;19900;-83
2022/08/18 11:17:31;;;;;;;27.25;22.02;;;22.00;99.90;;;;;;6150859;23;20033;-83
2022/08/18 11:19:59;;;;;;;22.23;19.73;;;22.30;99.90;;;;;;6154959;23;20056;-84
2022/08/18 11:22:26;;;;;;;22.98;19.35;;;22.40;99.90;;;;;;6155122;23;20024;-83
2022/08/18 11:24:51;;;;;;;21.83;19.40;;;22.50;99.90;;;;;;6155129;23;20021;-83
2022/08/18 11:27:22;;;;;;;21.20;17.95;;;22.60;99.90;;;;;;6155338;23;20434;-83
2022/08/18 11:29:48;;;;;;;20.50;17.75;;;23.10;99.90;;;;;;6156259;23;20334;-83
2022/08/18 11:32:53;;;;;;;23.15;18.42;;;23.00;99.90;;;;;;6130364;23;20010;-84
2022/08/18 11:35:26;;;;;;;20.65;17.42;;;23.10;99.90;;;;;;6150839;23;20016;-83
2022/08/18 11:38:18;;;;;;;20.30;17.10;;;23.10;99.90;;;;;;6130738;23;20009;-83
2022/08/18 11:40:48;;;;;;;21.85;17.20;;;23.40;99.90;;;;;;6127273;23;20428;-83
2022/08/18 11:43:19;;;;;;;23.10;17.30;;;23.90;99.90;;;;;;6154524;23;20072;-83
2022/08/18 11:45:51;;;;;;;;;;;23.80;99.90;;;;;;6130440;23;20669;-83
2022/08/18 11:48:23;;;;;;;20.15;16.25;;;24.00;99.90;;;;;;6129460;23;19908;-83
2022/08/18 11:50:54;;;;;;;19.02;17.05;;;23.70;99.90;;;;;;6155717;23;20015;-82
2022/08/18 11:53:23;;;;;;;;;;;23.20;99.90;;;;;;6154338;23;20005;-83
2022/08/18 11:56:15;;;;;;;18.50;15.10;;;22.90;99.90;;;;;;6153947;23;19900;-84
2022/08/18 11:58:44;;;;;;;20.15;16.77;;;23.10;99.90;;;;;;6147375;23;20037;-83
2022/08/18 12:01:29;;;;;;;17.58;15.75;;;23.30;99.90;;;;;;6155443;23;20085;-83
2022/08/18 12:03:56;;;;;;;17.92;16.02;;;23.40;99.90;;;;;;6128931;23;20092;-83
2022/08/18 12:06:30;;;;;;;17.38;15.23;;;23.50;99.90;;;;;;6129535;23;20633;-83
2022/08/18 12:09:31;;;;;;;19.85;13.70;;;23.60;99.90;;;;;;6130198;23;20086;-83
2022/08/18 12:12:13;;;;;;;16.77;12.82;;;23.90;99.90;;;;;;6070563;23;20006;-83
2022/08/18 12:14:58;;;;;;;14.02;12.52;;;24.50;99.90;;;;;;6145017;23;20012;-83
2022/08/18 12:17:24;;;;;;;15.10;12.65;;;24.70;99.90;;;;;;6154438;23;20033;-84
2022/08/18 12:19:51;;;;;;;16.85;12.05;;;24.70;99.90;;;;;;6130391;23;20005;-83
2022/08/18 12:22:30;;;;;;;15.63;12.52;;;24.50;99.90;;;;;;6130638;23;20010;-83
2022/08/18 12:24:57;;;;;;;14.93;12.13;;;24.40;99.90;;;;;;6130068;23;20016;-83
2022/08/18 12:27:24;;;;;;;14.30;12.23;;;24.40;99.90;;;;;;6130046;23;20048;-84
2022/08/18 12:29:52;;;;;;;14.43;12.48;;;24.60;99.90;;;;;;6153966;23;20387;-84
2022/08/18 12:32:19;;;;;;;14.45;12.95;;;25.30;99.90;;;;;;6129488;23;20283;-83
2022/08/18 12:34:45;;;;;;;13.18;11.88;;;25.80;99.90;;;;;;6154097;23;20335;-83
2022/08/18 12:37:16;;;;;;;13.70;11.48;;;25.70;99.90;;;;;;6154646;23;20502;-83
2022/08/18 12:39:42;;;;;;;15.00;11.65;;;26.10;99.90;;;;;;6129296;23;20580;-83
2022/08/18 12:42:10;;;;;;;13.05;11.35;;;25.80;99.90;;;;;;6129469;23;20071;-83
2022/08/18 12:44:36;;;;;;;15.05;10.90;;;25.50;99.90;;;;;;6154401;23;20006;-84
2022/08/18 12:47:08;;;;;;;12.00;10.65;;;25.40;99.90;;;;;;6156200;23;20044;-83
2022/08/18 12:49:34;;;;;;;13.52;10.90;;;25.30;99.90;;;;;;6156548;23;20018;-84
2022/08/18 12:52:00;;;;;;;11.85;10.65;;;25.20;99.90;;;;;;6130070;23;20005;-84
2022/08/18 12:54:26;;;;;;;11.88;10.48;;;25.10;99.90;;;;;;6129922;23;20112;-83
2022/08/18 12:56:54;;;;;;;14.68;10.23;;;25.30;99.90;;;;;;6129903;23;20442;-84
2022/08/18 12:59:20;;;;;;;13.55;10.60;;;25.10;99.90;;;;;;6154458;23;20041;-83
2022/08/18 13:01:46;;;;;;;10.98;9.80;;;25.20;99.90;;;;;;6154191;23;20017;-84
2022/08/18 13:04:12;;;;;;;12.20;9.50;;;25.30;99.90;;;;;;6129524;23;20014;-83
2022/08/18 13:06:40;;;;;;;13.10;9.98;;;25.40;99.90;;;;;;6129859;23;20009;-83
2022/08/18 13:09:09;;;;;;;12.27;10.40;;;25.40;99.90;;;;;;6154302;23;20013;-84
2022/08/18 13:11:34;;;;;;;11.00;9.85;;;25.80;99.90;;;;;;6129658;23;20009;-83
2022/08/18 13:14:00;;;;;;;9.77;8.77;;;26.00;99.90;;;;;;6129769;23;20304;-84
2022/08/18 13:16:30;;;;;;;11.32;10.23;;;25.90;99.90;;;;;;6129521;23;20054;-83
2022/08/18 13:18:55;;;;;;;12.52;9.35;;;25.90;99.90;;;;;;6129664;23;20032;-83
2022/08/18 13:21:21;;;;;;;12.30;9.13;;;26.00;99.90;;;;;;6153853;23;20008;-83
2022/08/18 13:23:47;;;;;;;11.07;9.88;;;25.80;99.90;;;;;;6160197;23;20005;-83
2022/08/18 13:26:26;;;;;;;12.15;9.35;;;25.80;99.90;;;;;;6134676;23;20092;-83
2022/08/18 13:28:51;;;;;;;13.65;9.38;;;25.90;99.90;;;;;;6128973;23;20001;-83
2022/08/18 13:31:17;;;;;;;14.63;8.25;;;26.00;99.90;;;;;;6153783;23;20084;-83
2022/08/18 13:33:43;;;;;;;9.50;8.32;;;26.00;99.90;;;;;;6128926;23;20036;-83
2022/08/18 13:36:44;;;;;;;10.07;8.93;;;26.10;99.90;;;;;;6129034;23;20009;-83
2022/08/18 13:39:19;;;;;;;10.85;9.15;;;25.90;99.90;;;;;;6129216;23;20009;-83